Time;durP1;ratioP1;P1;durP2;ratioP2;P2;SDS_P1;SDS_P2;PMS_P1;PMS_P2;Temp;Humidity;BMP_temperature;BMP_pressure;BME280_temperature;BME280_humidity;BME280_pressure;Samples;Min_cycle;Max_cycle;Signal;HPM_P1;HPM_P2
2022/08/04 00:00:06;;;;;;;4.95;2.00;;;;;;;25.06;63.04;100145.00;5090604;28;20226;-76
2022/08/04 00:02:46;;;;;;;3.97;2.03;;;;;;;25.10;61.63;100156.34;5078357;28;20198;-76
2022/08/04 00:05:23;;;;;;;3.15;2.42;;;;;;;25.05;61.65;100160.97;5073319;28;20191;-75
2022/08/04 00:08:05;;;;;;;2.50;2.40;;;;;;;25.08;60.51;100164.38;5072902;28;20198;-76
2022/08/04 00:10:33;;;;;;;3.88;2.40;;;;;;;24.98;61.55;100167.47;5088892;28;20207;-76
2022/08/04 00:13:03;;;;;;;3.58;2.40;;;;;;;24.97;63.57;100173.75;5092649;28;20753;-76
2022/08/04 00:15:33;;;;;;;4.35;2.10;;;;;;;24.81;69.00;100180.56;5092911;28;20209;-76
2022/08/04 00:18:04;;;;;;;3.47;2.60;;;;;;;24.53;76.98;100159.63;5052816;28;20203;-76
2022/08/04 00:20:33;;;;;;;3.63;2.67;;;;;;;24.67;76.12;100175.84;5065608;28;20226;-76
2022/08/04 00:23:01;;;;;;;5.20;2.55;;;;;;;24.67;76.51;100173.19;5086957;28;20206;-76
2022/08/04 00:25:29;;;;;;;2.78;2.40;;;;;;;24.67;77.33;100175.84;5089391;28;20749;-76
2022/08/04 00:27:56;;;;;;;5.47;2.60;;;;;;;24.55;76.46;100178.97;5081102;28;20578;-76
2022/08/04 00:30:24;;;;;;;2.50;2.30;;;;;;;24.52;74.30;100158.75;5092499;28;20202;-76
2022/08/04 00:32:52;;;;;;;4.50;2.35;;;;;;;24.63;73.06;100160.97;5090678;28;20194;-76
2022/08/04 00:35:19;;;;;;;2.70;2.50;;;;;;;24.70;71.28;100181.00;5092378;28;20230;-76
2022/08/04 00:37:47;;;;;;;4.20;2.55;;;;;;;24.77;73.97;100179.81;5091859;28;20206;-76
2022/08/04 00:40:25;;;;;;;3.22;2.20;;;;;;;24.86;71.67;100160.94;5088341;28;20214;-76
2022/08/04 00:43:05;;;;;;;8.13;2.38;;;;;;;25.00;69.01;100182.44;5088455;28;20205;-76
2022/08/04 00:45:56;;;;;;;2.80;2.10;;;;;;;24.94;69.06;100195.94;5076662;28;20206;-76
2022/08/04 00:48:41;;;;;;;2.70;2.22;;;;;;;24.90;69.43;100193.50;5092099;28;20674;-76
2022/08/04 00:51:16;;;;;;;3.05;2.40;;;;;;;24.81;72.85;100197.34;5091771;28;20210;-76
2022/08/04 00:53:53;;;;;;;2.60;2.38;;;;;;;24.57;71.79;100172.72;5092254;28;20228;-76
2022/08/04 00:56:42;;;;;;;4.00;2.38;;;;;;;24.68;73.30;100191.66;5034424;28;20218;-76
2022/08/04 00:59:19;;;;;;;2.67;2.50;;;;;;;24.44;72.16;100160.84;5077599;28;20205;-76
2022/08/04 01:01:59;;;;;;;2.00;1.90;;;;;;;24.52;71.89;100200.31;5088346;28;20193;-76
2022/08/04 01:04:45;;;;;;;2.40;2.05;;;;;;;24.30;72.87;100172.94;5075746;28;20194;-76
2022/08/04 01:07:30;;;;;;;2.70;2.17;;;;;;;24.39;73.02;100192.00;5081707;28;20214;-76
2022/08/04 01:10:07;;;;;;;3.72;2.30;;;;;;;24.28;73.36;100203.94;5081299;28;20670;-76
2022/08/04 01:12:50;;;;;;;2.33;2.13;;;;;;;23.98;78.29;100193.56;5090146;28;20211;-76
2022/08/04 01:15:26;;;;;;;3.17;2.88;;;;;;;23.69;92.30;100207.88;5056260;28;20191;-76
2022/08/04 01:18:04;;;;;;;3.00;2.80;;;;;;;23.23;98.58;100213.94;5090300;28;20204;-76
2022/08/04 01:20:34;;;;;;;4.82;2.83;;;;;;;22.90;100.00;100217.69;5077580;28;20227;-76
2022/08/04 01:23:42;;;;;;;3.17;2.88;;;;;;;22.87;100.00;100220.44;5071733;28;20267;-76
2022/08/04 01:26:50;;;;;;;2.80;2.60;;;;;;;22.55;100.00;100202.09;5080755;28;20190;-76
2022/08/04 01:29:22;;;;;;;4.80;2.90;;;;;;;22.71;100.00;100227.16;5091464;28;20202;-77
2022/08/04 01:32:00;;;;;;;3.10;2.47;;;;;;;22.85;100.00;100221.44;5081058;28;20206;-76
2022/08/04 01:34:30;;;;;;;3.10;2.90;;;;;;;22.86;100.00;100208.16;5071049;28;20276;-76
2022/08/04 01:37:00;;;;;;;2.60;2.40;;;;;;;22.95;100.00;100217.56;5081807;28;20194;-76
2022/08/04 01:39:47;;;;;;;3.05;2.20;;;;;;;23.06;94.86;100221.56;5071688;28;20318;-75
2022/08/04 01:42:18;;;;;;;6.47;2.83;;;;;;;23.08;96.13;100211.78;5073984;28;20198;-75
2022/08/04 01:44:48;;;;;;;3.55;2.42;;;;;;;23.13;93.01;100201.94;5080316;28;20195;-76
2022/08/04 01:47:19;;;;;;;3.17;2.60;;;;;;;23.26;93.33;100198.88;5084516;28;20209;-76
2022/08/04 01:49:49;;;;;;;2.63;2.53;;;;;;;23.46;92.52;100209.66;5072828;28;20194;-76
2022/08/04 01:52:17;;;;;;;3.15;2.45;;;;;;;23.34;93.04;100210.03;5075427;28;20572;-76
2022/08/04 01:54:48;;;;;;;2.78;2.55;;;;;;;23.17;92.99;100177.09;5055829;28;20205;-76
2022/08/04 01:57:17;;;;;;;3.20;2.90;;;;;;;23.35;91.44;100201.19;5077994;28;20203;-76
2022/08/04 01:59:47;;;;;;;2.55;2.40;;;;;;;23.31;90.38;100200.44;5070777;28;20254;-76
2022/08/04 02:02:14;;;;;;;2.75;2.50;;;;;;;23.05;88.86;100182.81;5070696;28;20662;-76
2022/08/04 02:04:42;;;;;;;4.22;2.55;;;;;;;23.12;88.83;100189.63;5077067;28;20211;-76
2022/08/04 02:07:20;;;;;;;3.05;2.75;;;;;;;23.26;88.38;100204.16;5090415;28;20198;-76
2022/08/04 02:10:01;;;;;;;5.90;2.38;;;;;;;23.37;85.62;100204.63;5082613;28;20230;-76
2022/08/04 02:12:54;;;;;;;2.60;2.40;;;;;;;23.36;83.96;100205.56;5053682;28;20195;-76
2022/08/04 02:15:28;;;;;;;2.78;2.30;;;;;;;23.20;83.45;100190.22;5082449;28;20198;-75
2022/08/04 02:18:02;;;;;;;2.50;2.35;;;;;;;23.21;85.93;100202.53;5089366;28;20209;-76
2022/08/04 02:20:35;;;;;;;12.07;2.40;;;;;;;22.98;86.24;100178.66;5071582;28;20757;-76
2022/08/04 02:23:06;;;;;;;2.60;2.50;;;;;;;23.32;84.93;100196.00;5073898;28;20252;-76
2022/08/04 02:25:37;;;;;;;3.50;2.40;;;;;;;23.39;81.37;100179.84;5073267;28;20639;-76
2022/08/04 02:28:21;;;;;;;4.35;2.60;;;;;;;23.50;81.39;100211.28;5051939;28;20198;-76
2022/08/04 02:31:03;;;;;;;2.40;2.20;;;;;;;23.53;81.30;100212.03;5071740;28;20199;-76
2022/08/04 02:33:36;;;;;;;3.22;2.47;;;;;;;23.56;83.71;100205.75;5079832;28;20682;-76
2022/08/04 02:36:05;;;;;;;3.10;2.00;;;;;;;23.65;82.45;100208.91;5076331;28;20624;-76
2022/08/04 02:38:48;;;;;;;3.67;2.03;;;;;;;23.75;81.89;100212.13;5074421;28;20195;-75
2022/08/04 02:41:16;;;;;;;2.40;2.30;;;;;;;23.69;82.48;100217.59;5073972;28;20264;-76
2022/08/04 02:43:47;;;;;;;2.83;2.33;;;;;;;23.59;82.23;100179.16;5087732;28;20190;-75
2022/08/04 02:46:17;;;;;;;2.78;2.17;;;;;;;23.67;81.64;100206.22;5070402;28;20191;-75
2022/08/04 02:48:47;;;;;;;2.80;2.20;;;;;;;23.75;78.02;100204.16;5070750;28;20211;-76
2022/08/04 02:51:16;;;;;;;2.53;2.42;;;;;;;23.69;78.65;100210.53;5070307;28;20260;-75
2022/08/04 02:53:44;;;;;;;2.70;2.53;;;;;;;23.48;79.42;100181.31;5070176;28;21407;-75
2022/08/04 02:56:15;;;;;;;3.25;2.47;;;;;;;23.76;77.67;100207.69;5076677;28;20198;-76
2022/08/04 02:58:46;;;;;;;5.03;2.40;;;;;;;23.49;78.85;100172.47;5040936;28;20209;-76
2022/08/04 03:01:13;;;;;;;2.67;2.10;;;;;;;23.72;77.54;100196.34;5083846;28;20222;-76
2022/08/04 03:03:51;;;;;;;2.25;2.13;;;;;;;23.83;78.71;100198.59;5084800;28;20202;-76
2022/08/04 03:06:40;;;;;;;3.92;2.53;;;;;;;24.00;76.12;100201.47;5090490;28;20216;-76
2022/08/04 03:09:45;;;;;;;2.90;2.30;;;;;;;24.09;73.68;100196.66;5072579;28;20207;-76
2022/08/04 03:12:58;;;;;;;2.53;2.25;;;;;;;24.34;70.96;100187.78;5070027;28;20602;-76
2022/08/04 03:16:01;;;;;;;4.75;2.28;;;;;;;24.39;70.41;100184.06;4986301;28;20653;-75
2022/08/04 03:19:06;;;;;;;4.45;2.35;;;;;;;24.30;72.26;100188.84;4977863;28;20198;-75
2022/08/04 03:22:00;;;;;;;7.63;2.55;;;;;;;24.16;73.77;100179.66;4929234;29;20600;-75
2022/08/04 03:25:24;;;;;;;3.70;2.65;;;;;;;24.38;73.94;100200.00;4929916;29;20223;-76
2022/08/04 03:28:18;;;;;;;3.25;2.20;;;;;;;24.29;75.03;100188.00;4925727;29;20736;-75
2022/08/04 03:31:06;;;;;;;3.00;2.67;;;;;;;24.41;75.30;100194.56;4916556;29;20228;-76
2022/08/04 03:33:49;;;;;;;2.60;2.40;;;;;;;24.36;75.88;100172.72;4932634;29;20210;-75
2022/08/04 03:36:46;;;;;;;2.90;2.70;;;;;;;24.49;76.71;100174.78;4918797;29;20232;-76
2022/08/04 03:39:41;;;;;;;4.70;2.70;;;;;;;24.57;75.28;100174.50;4915395;29;20208;-76
2022/08/04 03:42:34;;;;;;;3.20;2.90;;;;;;;24.70;75.44;100186.31;4929421;29;20219;-76
2022/08/04 03:45:42;;;;;;;4.70;2.40;;;;;;;24.73;75.26;100183.53;4914853;29;20204;-76
2022/08/04 03:48:39;;;;;;;3.33;2.33;;;;;;;25.09;73.50;100202.38;4811840;29;20214;-76
2022/08/04 03:54:42;;;;;;;3.75;2.80;;;;;;;25.70;71.18;100219.19;4856863;29;20217;-75
2022/08/04 03:57:52;;;;;;;9.18;2.90;;;;;;;26.43;67.32;100210.50;4847876;29;20217;-76
2022/08/04 04:00:20;;;;;;;3.33;2.53;;;;;;;26.40;63.98;100138.84;4929987;29;20915;-75
2022/08/04 04:03:13;;;;;;;7.22;2.58;;;;;;;27.27;62.08;100201.88;4908624;29;20247;-76
2022/08/04 04:06:28;;;;;;;7.43;2.65;;;;;;;27.65;59.94;100213.25;4930113;29;20199;-74
2022/08/04 04:09:42;;;;;;;3.85;2.75;;;;;;;28.34;57.40;100208.53;4870530;29;20209;-74
2022/08/04 04:12:27;;;;;;;8.45;2.45;;;;;;;28.30;57.06;100225.66;4872055;29;20228;-75
2022/08/04 04:15:12;;;;;;;2.50;2.30;;;;;;;28.14;56.87;100227.47;4875582;29;20213;-77
2022/08/04 04:18:11;;;;;;;3.92;2.85;;;;;;;28.42;56.71;100225.00;4859214;29;20212;-75
2022/08/04 04:21:09;;;;;;;3.63;2.85;;;;;;;28.52;55.53;100223.53;4871012;29;20228;-74
2022/08/04 04:24:01;;;;;;;3.08;2.70;;;;;;;28.49;55.00;100210.38;4872142;29;20217;-75
2022/08/04 04:26:40;;;;;;;2.42;2.20;;;;;;;28.58;55.30;100232.03;4971226;28;20644;-75
2022/08/04 04:29:23;;;;;;;6.05;2.83;;;;;;;28.25;56.02;100230.41;4970830;28;20205;-77
2022/08/04 04:32:05;;;;;;;3.15;2.83;;;;;;;28.24;55.98;100234.88;4969915;28;20205;-78
2022/08/04 04:34:41;;;;;;;3.75;2.55;;;;;;;28.22;57.43;100231.41;4981579;28;20197;-77
2022/08/04 04:37:20;;;;;;;9.00;3.05;;;;;;;29.11;54.06;100235.28;5028225;28;20767;-78
2022/08/04 04:40:03;;;;;;;5.38;3.70;;;;;;;29.39;53.28;100206.00;5034223;28;20230;-78
2022/08/04 04:43:09;;;;;;;8.70;3.40;;;;;;;29.80;52.09;100241.72;5034401;28;20611;-76
2022/08/04 04:45:42;;;;;;;3.65;3.35;;;;;;;29.89;52.41;100249.25;5072073;28;20201;-76
2022/08/04 04:48:21;;;;;;;5.72;3.80;;;;;;;29.76;52.99;100242.00;5074869;28;20199;-77
2022/08/04 04:51:02;;;;;;;5.57;4.15;;;;;;;30.42;51.54;100242.34;5075259;28;20205;-78
2022/08/04 04:53:35;;;;;;;5.55;3.80;;;;;;;30.45;52.14;100245.69;5071761;28;20208;-79
2022/08/04 04:56:09;;;;;;;3.70;3.30;;;;;;;30.62;52.44;100235.69;5079054;28;20199;-78
2022/08/04 04:58:38;;;;;;;5.05;3.10;;;;;;;30.77;51.72;100243.59;5078700;28;20221;-75
2022/08/04 05:01:27;;;;;;;5.28;3.00;;;;;;;30.12;53.63;100249.59;5069393;28;20708;-76
2022/08/04 05:04:14;;;;;;;3.42;3.10;;;;;;;30.65;52.83;100257.75;5069565;28;20237;-75
2022/08/04 05:06:58;;;;;;;9.25;3.20;;;;;;;30.01;54.67;100237.75;5062756;28;20203;-76
2022/08/04 05:09:41;;;;;;;6.13;2.80;;;;;;;30.19;53.86;100254.47;5068340;28;20206;-76
2022/08/04 05:12:32;;;;;;;9.02;3.25;;;;;;;29.84;55.97;100248.66;5064305;28;20210;-77
2022/08/04 05:15:01;;;;;;;4.43;3.70;;;;;;;30.32;54.33;100243.88;5069382;28;20198;-78
2022/08/04 05:17:35;;;;;;;3.00;2.80;;;;;;;30.83;53.39;100255.69;5065580;28;20210;-77
2022/08/04 05:20:07;;;;;;;3.47;2.80;;;;;;;31.12;52.10;100259.16;5068552;28;20201;-79
2022/08/04 05:22:39;;;;;;;6.32;2.70;;;;;;;30.13;53.70;100262.03;5031025;28;20210;-77
2022/08/04 05:25:12;;;;;;;3.50;2.70;;;;;;;29.81;55.43;100248.81;5067779;28;20207;-77
2022/08/04 05:27:45;;;;;;;2.97;2.63;;;;;;;28.67;58.07;100196.00;5066632;28;20198;-77
2022/08/04 05:30:13;;;;;;;5.10;2.80;;;;;;;28.94;57.79;100253.13;5039074;28;20969;-77
2022/08/04 05:32:54;;;;;;;6.65;3.47;;;;;;;28.61;59.25;100255.00;5068076;28;20210;-76
2022/08/04 05:35:31;;;;;;;6.10;3.20;;;;;;;28.22;60.47;100241.25;5077317;28;20226;-78
2022/08/04 05:37:59;;;;;;;4.35;2.60;;;;;;;28.05;61.40;100251.00;5079973;28;20563;-77
2022/08/04 05:40:27;;;;;;;2.58;2.38;;;;;;;28.25;61.45;100265.09;5081166;28;20202;-78
2022/08/04 05:42:55;;;;;;;2.78;2.58;;;;;;;28.47;61.33;100239.78;5070919;28;20207;-77
2022/08/04 05:45:23;;;;;;;2.65;2.45;;;;;;;28.27;61.97;100249.84;5050391;28;20226;-77
2022/08/04 05:47:52;;;;;;;5.20;2.20;;;;;;;28.38;60.40;100252.78;5067168;28;20205;-76
2022/08/04 05:50:20;;;;;;;11.73;3.10;;;;;;;28.94;60.31;100245.13;5064963;28;20244;-76
2022/08/04 05:52:50;;;;;;;3.58;2.80;;;;;;;28.98;57.95;100235.97;5050777;28;20714;-77
2022/08/04 05:55:18;;;;;;;7.05;3.00;;;;;;;29.42;56.57;100253.91;5059870;28;20297;-77
2022/08/04 05:57:47;;;;;;;2.80;2.60;;;;;;;29.12;56.77;100247.66;5058652;28;20207;-78
2022/08/04 06:00:16;;;;;;;2.50;2.30;;;;;;;28.73;57.41;100242.81;5049232;28;20659;-77
2022/08/04 06:02:45;;;;;;;3.80;2.50;;;;;;;28.19;59.75;100262.72;5049468;28;20223;-78
2022/08/04 06:05:14;;;;;;;2.50;2.30;;;;;;;27.96;62.48;100270.16;5049377;28;20207;-77
2022/08/04 06:07:41;;;;;;;6.88;2.78;;;;;;;28.00;62.93;100221.03;5030947;28;20214;-77
2022/08/04 06:10:09;;;;;;;5.40;1.88;;;;;;;27.98;62.58;100270.94;5058097;28;20205;-76
2022/08/04 06:12:40;;;;;;;2.10;2.00;;;;;;;27.42;62.86;100217.94;5069130;28;20213;-76
2022/08/04 06:15:12;;;;;;;2.50;2.10;;;;;;;27.55;64.09;100223.50;5069714;28;20209;-77
2022/08/04 06:17:46;;;;;;;2.90;2.70;;;;;;;27.73;64.76;100261.63;5058059;28;20261;-76
2022/08/04 06:20:15;;;;;;;2.60;2.40;;;;;;;27.78;64.03;100246.28;5052095;28;20210;-76
2022/08/04 06:22:44;;;;;;;3.85;2.70;;;;;;;27.70;66.21;100252.00;5030699;28;21104;-75
2022/08/04 06:25:19;;;;;;;2.40;2.25;;;;;;;27.63;66.49;100252.41;5054062;28;20213;-76
2022/08/04 06:27:48;;;;;;;3.03;2.25;;;;;;;27.52;66.68;100260.97;5050048;28;20273;-76
2022/08/04 06:30:18;;;;;;;3.17;2.95;;;;;;;27.45;67.32;100238.25;5049468;28;20204;-76
2022/08/04 06:32:54;;;;;;;3.40;2.20;;;;;;;27.72;67.82;100247.44;5049965;28;20941;-77
2022/08/04 06:35:22;;;;;;;3.53;2.30;;;;;;;27.24;66.22;100208.22;5049250;28;20238;-76
2022/08/04 06:37:51;;;;;;;4.03;2.30;;;;;;;27.45;66.83;100249.75;5054354;28;20214;-76
2022/08/04 06:40:21;;;;;;;3.58;2.60;;;;;;;27.79;65.89;100267.50;5049400;28;20221;-76
2022/08/04 06:42:49;;;;;;;4.30;2.53;;;;;;;27.72;65.51;100247.44;5049888;28;20230;-76
2022/08/04 06:45:18;;;;;;;2.50;2.40;;;;;;;27.58;66.80;100264.16;5049524;28;20199;-76
2022/08/04 06:47:46;;;;;;;7.05;2.50;;;;;;;27.84;65.76;100270.78;5049522;28;20235;-75
2022/08/04 06:50:14;;;;;;;5.57;2.65;;;;;;;27.92;65.48;100273.06;5044506;28;20206;-75
2022/08/04 06:52:40;;;;;;;3.28;2.45;;;;;;;27.85;65.35;100280.53;5051730;28;20207;-75
2022/08/04 06:55:08;;;;;;;2.65;2.42;;;;;;;27.77;65.77;100250.75;5055356;28;20195;-76
2022/08/04 06:57:37;;;;;;;4.20;2.30;;;;;;;28.21;66.14;100276.88;5053185;28;20592;-77
2022/08/04 07:00:09;;;;;;;2.47;2.28;;;;;;;28.45;65.15;100275.50;5034116;28;20202;-77
2022/08/04 07:02:41;;;;;;;4.07;2.40;;;;;;;28.47;63.03;100246.91;5058803;28;20630;-77
2022/08/04 07:05:08;;;;;;;2.97;2.70;;;;;;;28.51;62.72;100275.16;5070814;28;20701;-77
2022/08/04 07:07:35;;;;;;;2.42;2.20;;;;;;;28.73;61.79;100274.84;5067303;28;20677;-76
2022/08/04 07:10:03;;;;;;;2.70;2.42;;;;;;;28.71;62.36;100280.28;5061076;28;20238;-77
2022/08/04 07:12:32;;;;;;;2.88;2.22;;;;;;;28.61;60.51;100236.31;5053434;28;20207;-77
2022/08/04 07:15:01;;;;;;;2.85;2.10;;;;;;;28.79;60.30;100269.19;5059738;28;20686;-77
2022/08/04 07:17:29;;;;;;;2.45;2.25;;;;;;;28.98;60.60;100261.81;5060388;28;20199;-77
2022/08/04 07:19:56;;;;;;;5.88;2.30;;;;;;;29.00;59.67;100263.44;5053236;28;20202;-77
2022/08/04 07:22:25;;;;;;;2.63;2.42;;;;;;;28.68;58.48;100256.41;5069738;28;20214;-76
2022/08/04 07:24:55;;;;;;;4.35;2.80;;;;;;;28.85;59.26;100263.50;5072732;28;20690;-76
2022/08/04 07:27:23;;;;;;;2.80;2.20;;;;;;;28.90;57.48;100262.25;5072292;28;20650;-76
2022/08/04 07:29:50;;;;;;;3.85;2.42;;;;;;;28.89;56.61;100260.56;5072492;28;20198;-76
2022/08/04 07:32:19;;;;;;;2.50;2.30;;;;;;;28.66;57.47;100209.38;5073370;28;20670;-76
2022/08/04 07:34:47;;;;;;;5.32;2.30;;;;;;;28.91;57.20;100247.97;5073034;28;20595;-76
2022/08/04 07:37:15;;;;;;;3.42;2.30;;;;;;;27.99;57.08;100070.03;5073097;28;20190;-74
2022/08/04 07:39:42;;;;;;;2.13;1.73;;;;;;;28.84;56.32;100246.59;5037365;28;20205;-75
2022/08/04 07:42:10;;;;;;;16.15;3.38;;;;;;;28.70;57.06;100246.53;5073313;28;20307;-76
2022/08/04 07:44:37;;;;;;;6.10;2.33;;;;;;;28.74;57.02;100208.03;5053984;28;20205;-77
2022/08/04 07:47:07;;;;;;;3.00;1.85;;;;;;;29.04;57.30;100246.31;5053648;28;20202;-76
2022/08/04 07:49:36;;;;;;;2.38;2.17;;;;;;;29.11;56.66;100248.63;5072218;28;20698;-77
2022/08/04 07:52:04;;;;;;;2.38;2.20;;;;;;;29.12;56.00;100242.31;5072770;28;20631;-77
2022/08/04 07:54:31;;;;;;;10.13;2.33;;;;;;;29.33;56.16;100246.41;5037469;28;20217;-77
2022/08/04 07:56:58;;;;;;;2.60;2.40;;;;;;;29.63;54.14;100246.41;5072151;28;20203;-76
2022/08/04 07:59:25;;;;;;;2.72;2.25;;;;;;;29.62;54.17;100256.22;5072275;28;20205;-73
2022/08/04 08:01:53;;;;;;;2.55;2.42;;;;;;;29.29;56.36;100247.53;5072319;28;20260;-77
2022/08/04 08:04:20;;;;;;;2.40;2.15;;;;;;;29.62;54.72;100253.56;5071578;28;20671;-76
2022/08/04 08:06:49;;;;;;;2.33;2.13;;;;;;;29.70;54.47;100253.94;5072303;28;20194;-76
2022/08/04 08:09:18;;;;;;;2.78;2.20;;;;;;;29.27;53.48;100265.50;5072205;28;20218;-77
2022/08/04 08:11:46;;;;;;;2.33;2.22;;;;;;;29.45;54.53;100256.38;5072356;28;20187;-75
2022/08/04 08:14:13;;;;;;;6.18;2.40;;;;;;;29.62;55.23;100260.72;5072299;28;20276;-75
2022/08/04 08:16:40;;;;;;;2.85;2.50;;;;;;;29.70;53.60;100259.31;5072140;28;20608;-77
2022/08/04 08:19:07;;;;;;;3.00;2.08;;;;;;;29.50;53.25;100254.31;5071859;28;20205;-76
2022/08/04 08:21:35;;;;;;;2.20;1.98;;;;;;;29.62;54.23;100244.66;5072115;28;20264;-76
2022/08/04 08:24:05;;;;;;;2.38;2.17;;;;;;;29.75;52.89;100249.16;5072221;28;20205;-77
2022/08/04 08:26:32;;;;;;;2.63;2.20;;;;;;;30.00;51.15;100257.44;5071896;28;20197;-78
2022/08/04 08:28:59;;;;;;;2.17;2.08;;;;;;;29.86;51.50;100254.75;5071852;28;20543;-76
2022/08/04 08:31:26;;;;;;;5.03;2.05;;;;;;;29.76;49.19;100258.06;5071854;28;20198;-76
2022/08/04 08:33:53;;;;;;;3.05;2.13;;;;;;;30.11;49.37;100258.59;5071794;28;20206;-77
2022/08/04 08:36:26;;;;;;;2.80;2.00;;;;;;;29.68;49.68;100233.63;5071282;28;20234;-77
2022/08/04 08:39:05;;;;;;;1.92;1.83;;;;;;;29.85;49.98;100242.34;5071881;28;20202;-78
2022/08/04 08:42:10;;;;;;;2.00;1.90;;;;;;;30.29;49.27;100257.41;5072089;28;20709;-77
2022/08/04 08:45:13;;;;;;;12.52;2.25;;;;;;;30.32;48.26;100263.44;4950991;28;20198;-77
2022/08/04 08:47:54;;;;;;;2.42;2.33;;;;;;;30.21;48.01;100259.72;4856853;29;20201;-76
2022/08/04 08:50:46;;;;;;;2.47;1.85;;;;;;;30.26;45.58;100265.63;4856774;29;20715;-77
2022/08/04 08:53:37;;;;;;;1.90;1.80;;;;;;;30.26;47.08;100263.81;4856886;29;20205;-76
2022/08/04 08:56:21;;;;;;;2.65;2.00;;;;;;;30.10;47.47;100251.53;4854528;29;20218;-78
2022/08/04 08:59:01;;;;;;;7.45;2.20;;;;;;;30.16;47.39;100254.66;4849786;29;20214;-78
2022/08/04 09:02:03;;;;;;;2.45;2.08;;;;;;;30.49;45.77;100260.59;4850841;29;20293;-77
2022/08/04 09:04:48;;;;;;;2.13;2.00;;;;;;;30.19;46.69;100261.63;4844423;29;20209;-77
2022/08/04 09:07:41;;;;;;;2.08;1.95;;;;;;;30.38;45.84;100259.53;4854922;29;20217;-77
2022/08/04 09:10:19;;;;;;;2.33;2.15;;;;;;;30.54;44.57;100262.13;4819640;29;20219;-77
2022/08/04 09:12:52;;;;;;;2.20;2.10;;;;;;;30.45;44.01;100258.19;4832531;29;20242;-77
2022/08/04 09:15:29;;;;;;;2.28;2.13;;;;;;;30.63;44.03;100256.16;4818596;29;20222;-77
2022/08/04 09:18:05;;;;;;;2.33;2.17;;;;;;;30.81;43.89;100250.47;4837020;29;20212;-77
2022/08/04 09:20:39;;;;;;;2.00;1.90;;;;;;;30.55;43.21;100248.63;4832143;29;20758;-78
2022/08/04 09:23:23;;;;;;;1.83;1.70;;;;;;;30.35;42.52;100249.88;4917537;29;20780;-77
2022/08/04 09:25:58;;;;;;;4.45;2.10;;;;;;;30.64;43.40;100234.66;5028252;28;20215;-76
2022/08/04 09:28:26;;;;;;;2.40;2.28;;;;;;;30.75;44.32;100245.47;5028355;28;20194;-76
2022/08/04 09:30:59;;;;;;;2.70;2.10;;;;;;;30.82;43.39;100245.97;5028314;28;20246;-76
2022/08/04 09:33:42;;;;;;;2.35;2.15;;;;;;;30.76;42.79;100246.34;4980297;28;20207;-76
2022/08/04 09:36:15;;;;;;;2.70;1.80;;;;;;;31.03;42.63;100238.34;5027737;28;20235;-76
2022/08/04 09:38:49;;;;;;;5.80;1.90;;;;;;;31.05;42.63;100236.41;5027899;28;20196;-74
2022/08/04 09:41:30;;;;;;;4.70;1.80;;;;;;;31.10;41.91;100236.97;5028046;28;20203;-74
2022/08/04 09:44:07;;;;;;;3.75;1.77;;;;;;;31.08;41.96;100237.06;5028013;28;20203;-77
2022/08/04 09:46:40;;;;;;;2.08;1.98;;;;;;;31.10;42.72;100235.16;5033799;28;20263;-76
2022/08/04 09:49:16;;;;;;;2.47;2.28;;;;;;;31.17;42.20;100243.63;5034872;28;20194;-77
2022/08/04 09:52:01;;;;;;;2.20;2.10;;;;;;;31.25;41.17;100235.94;5070396;28;20190;-77
2022/08/04 09:54:37;;;;;;;2.40;2.22;;;;;;;31.10;41.60;100231.63;5070070;28;20205;-73
2022/08/04 09:57:13;;;;;;;3.42;1.80;;;;;;;31.20;41.89;100235.38;5054767;28;20204;-76
2022/08/04 09:59:46;;;;;;;2.00;1.90;;;;;;;31.34;42.44;100205.81;5060436;28;20211;-76
2022/08/04 10:02:15;;;;;;;2.00;1.90;;;;;;;31.31;41.93;100220.31;5063840;28;20710;-77
2022/08/04 10:04:45;;;;;;;4.40;1.90;;;;;;;31.31;40.73;100193.50;5065504;28;20580;-78
2022/08/04 10:07:48;;;;;;;2.63;2.25;;;;;;;31.63;41.97;100226.16;5050857;28;20253;-77
2022/08/04 10:10:32;;;;;;;2.75;2.00;;;;;;;31.49;41.19;100220.84;5031834;28;20195;-77
2022/08/04 10:13:27;;;;;;;2.80;2.30;;;;;;;31.56;42.16;100215.97;5053186;28;20201;-74
2022/08/04 10:16:07;;;;;;;2.08;1.58;;;;;;;31.61;41.14;100217.34;5048823;28;20598;-73
2022/08/04 10:18:50;;;;;;;6.38;2.40;;;;;;;31.60;40.97;100204.94;5050265;28;20199;-74
2022/08/04 10:21:31;;;;;;;2.15;2.05;;;;;;;31.29;41.18;100187.38;5049272;28;20260;-73
2022/08/04 10:24:28;;;;;;;2.30;2.00;;;;;;;31.66;41.15;100217.88;5048939;28;20222;-74
2022/08/04 10:27:01;;;;;;;3.47;2.40;;;;;;;31.63;40.56;100211.88;5049598;28;20195;-74
2022/08/04 10:29:31;;;;;;;3.78;1.73;;;;;;;31.76;40.68;100202.00;5048956;28;20198;-73
2022/08/04 10:32:04;;;;;;;7.20;1.80;;;;;;;31.67;40.50;100219.63;5049423;28;20207;-74
2022/08/04 10:34:41;;;;;;;6.28;2.20;;;;;;;31.71;40.97;100188.94;5049771;28;20214;-73
2022/08/04 10:37:20;;;;;;;1.75;1.65;;;;;;;31.98;40.61;100212.06;5050240;28;20285;-76
2022/08/04 10:42:41;;;;;;;2.20;2.00;;;;;;;31.81;40.28;100213.28;5065185;28;20217;-76
2022/08/04 10:45:16;;;;;;;2.40;2.00;;;;;;;31.75;40.10;100187.72;5070076;28;20190;-75
2022/08/04 10:47:50;;;;;;;1.92;1.83;;;;;;;32.00;39.02;100212.84;5069998;28;20668;-75
2022/08/04 10:50:21;;;;;;;6.45;2.10;;;;;;;32.05;40.01;100197.25;5069784;28;20202;-76
2022/08/04 10:53:05;;;;;;;1.83;1.73;;;;;;;31.88;39.03;100195.78;5033694;28;20790;-74
2022/08/04 10:55:37;;;;;;;2.80;1.88;;;;;;;31.80;39.83;100195.47;5069959;28;20209;-75
2022/08/04 10:58:07;;;;;;;2.30;2.20;;;;;;;32.19;40.25;100205.19;5069876;28;20226;-75
2022/08/04 11:00:37;;;;;;;2.42;1.80;;;;;;;32.10;39.38;100197.81;5069640;28;20209;-75
2022/08/04 11:03:08;;;;;;;2.40;2.28;;;;;;;31.99;40.25;100181.59;5069344;28;20225;-75
2022/08/04 11:05:42;;;;;;;3.17;2.15;;;;;;;32.00;39.52;100200.25;5069857;28;20209;-75
2022/08/04 11:08:14;;;;;;;6.90;2.20;;;;;;;32.31;40.08;100190.88;5069512;28;20202;-75
2022/08/04 11:10:48;;;;;;;6.70;2.55;;;;;;;32.58;39.35;100187.97;5069581;28;20202;-75
2022/08/04 11:13:17;;;;;;;2.35;2.15;;;;;;;32.51;39.58;100190.28;5069146;28;20221;-75
2022/08/04 11:15:50;;;;;;;4.80;2.28;;;;;;;32.40;39.00;100166.03;5069588;28;20205;-75
2022/08/04 11:18:25;;;;;;;5.32;2.40;;;;;;;32.11;39.12;100194.16;5069550;28;20676;-75
2022/08/04 11:20:59;;;;;;;2.25;2.05;;;;;;;32.62;39.44;100186.81;5069466;28;20589;-75
2022/08/04 11:23:34;;;;;;;4.25;2.13;;;;;;;32.42;39.55;100189.13;5069204;28;20233;-75
2022/08/04 11:26:09;;;;;;;4.03;2.78;;;;;;;32.24;38.53;100195.00;5069473;28;20234;-75
2022/08/04 11:28:49;;;;;;;5.03;2.30;;;;;;;31.73;37.11;100073.50;5069369;28;20658;-74
2022/08/04 11:31:23;;;;;;;11.60;2.38;;;;;;;32.33;37.61;100178.19;5069389;28;20206;-75
2022/08/04 11:33:56;;;;;;;2.53;2.33;;;;;;;32.41;37.23;100147.16;5069295;28;20256;-75
2022/08/04 11:36:32;;;;;;;5.80;2.28;;;;;;;32.84;36.77;100147.50;5049164;28;20281;-75
2022/08/04 11:39:10;;;;;;;3.10;2.20;;;;;;;32.87;36.84;100133.81;5049836;28;20205;-75
2022/08/04 11:41:48;;;;;;;2.38;2.15;;;;;;;33.44;36.46;100170.63;5051872;28;20212;-75
2022/08/04 11:44:25;;;;;;;2.42;2.08;;;;;;;33.28;36.41;100162.06;5052358;28;20659;-75
2022/08/04 11:46:58;;;;;;;2.97;2.40;;;;;;;33.14;36.73;100165.81;5052856;28;20195;-75
2022/08/04 11:49:31;;;;;;;2.40;2.30;;;;;;;32.89;37.40;100147.16;5052074;28;20199;-74
2022/08/04 11:52:01;;;;;;;5.57;2.53;;;;;;;33.03;36.88;100162.22;5051295;28;20210;-75
2022/08/04 11:54:31;;;;;;;2.58;2.38;;;;;;;33.17;36.72;100160.22;5051785;28;20199;-74
2022/08/04 11:56:58;;;;;;;4.90;2.30;;;;;;;33.19;36.47;100160.06;5051732;28;20198;-74
2022/08/04 11:59:29;;;;;;;5.63;2.50;;;;;;;33.36;35.69;100165.00;5051881;28;20191;-75
2022/08/04 12:02:30;;;;;;;5.22;2.70;;;;;;;33.32;36.15;100156.31;5052059;28;20570;-75
2022/08/04 12:04:58;;;;;;;2.50;2.30;;;;;;;33.26;35.93;100146.03;5010406;28;20703;-75
2022/08/04 12:07:45;;;;;;;14.65;2.95;;;;;;;33.52;35.61;100119.81;5010328;28;20200;-76
2022/08/04 12:10:26;;;;;;;2.33;2.05;;;;;;;33.92;34.43;100149.78;5010446;28;20204;-77
2022/08/04 12:13:03;;;;;;;6.13;2.38;;;;;;;33.76;34.95;100134.00;5011595;28;20211;-74